Airfield :
LOGIN :

Register | Disclaimer

   EN    FR    IT 

 










Legend :    VFR   Marginal VFR   IFR   Intensive IFR   Very Intensive IFR
Visi :
Ceiling :
>= 8 km
>= 3000ft
5 to 8 km
1000 to 3000 ft
1500m to 5 km
500 to 1000 ft
800 to 1500m
200 to 500 ft
< 800m
< 200 ft
Symbols :   Thunderstorms  Fog  Heavy snow  Heavy precipitations  Wind > 20 kt
SIGMETs :     Misc.  Thunderstorms  Icing  Turbulence  Mountain Waves  Volcanic Ashes







- Airport Elevation : 297 ft
- IATA code : UIP
- Download approach charts


LFRQ - Quimper Pluguffan

CURRENT METAR :
  • 172030Z AUTO 00000KT CAVOK 02/M01 Q1020 NOSIG

EXPIRED METARs :
  • 172000Z AUTO 00000KT CAVOK 02/M01 Q1020 NOSIG
  • 171930Z AUTO 00000KT CAVOK 02/M01 Q1020 NOSIG
  • 171900Z AUTO 00000KT CAVOK 03/M01 Q1019 NOSIG
  • 171830Z AUTO 34003KT CAVOK 04/M01 Q1020 NOSIG
  • 171800Z AUTO 35003KT CAVOK 04/M00 Q1019 NOSIG

TAF TAF LFRQ
Valid from the 17 at 18:00 until the 18 at 18:00 UTC


171700Z 1718/1818 VRB05KT 9999 SCT025
BECMG 1802/1804 16012KT
BECMG 1806/1808 4000 RA OVC009
TEMPO 1810/1818 2000 OVC005
No reported NOTAMs for that airfield.



MET'MAP, your aeronautical weather chart ! - Copyright ORBIFLY December 2007 - Disclaimer

ORBIFLY MET'MAP TEAM :

Programming & Development : Alexandra Zaïnal
Concept & Development : Baudouin d'Aumeries
Co-Development & Prog : Marc-Olivier Méhu
Technical & hardware support : Manuel Goepfert

Contact : metmap@orbifly.com




SOURCES & CREDITS :

   NOAA